createdAt,value
2023-10-24T00:00:55.535Z,21.59
2023-10-24T00:05:52.702Z,21.81
2023-10-24T00:10:49.406Z,21.70
2023-10-24T00:15:45.884Z,21.44
2023-10-24T00:20:43.236Z,21.60
2023-10-24T00:25:39.810Z,21.34
2023-10-24T00:30:36.472Z,21.65
2023-10-24T00:35:33.201Z,21.68
2023-10-24T00:40:32.895Z,21.70
2023-10-24T00:45:29.610Z,21.82
2023-10-24T00:50:26.350Z,21.83
2023-10-24T00:55:22.936Z,21.70
2023-10-24T01:00:20.258Z,21.68
2023-10-24T01:05:17.351Z,21.40
2023-10-24T01:10:13.942Z,21.10
2023-10-24T01:15:10.806Z,20.51
2023-10-24T01:20:09.081Z,20.66
2023-10-24T01:25:12.609Z,20.80
2023-10-24T01:30:10.034Z,21.06
2023-10-24T01:35:08.603Z,20.49
2023-10-24T01:40:06.823Z,19.90
2023-10-24T01:45:03.745Z,19.57
2023-10-24T01:50:00.738Z,19.32
2023-10-24T01:54:58.794Z,18.87
2023-10-24T01:59:56.027Z,18.68
2023-10-24T02:04:53.189Z,18.75
2023-10-24T02:09:51.128Z,18.70
2023-10-24T02:14:47.664Z,18.65
2023-10-24T02:19:45.077Z,18.59
2023-10-24T02:24:41.898Z,18.62
2023-10-24T02:29:41.542Z,18.66
2023-10-24T02:34:40.807Z,18.79
2023-10-24T02:39:38.289Z,18.86
2023-10-24T02:44:34.871Z,18.70
2023-10-24T02:49:31.752Z,18.65
2023-10-24T02:54:28.366Z,18.45
2023-10-24T02:59:25.574Z,18.53
2023-10-24T03:04:22.057Z,18.36
2023-10-24T03:09:18.568Z,18.19
2023-10-24T03:14:15.124Z,18.12
2023-10-24T03:19:17.818Z,18.23
2023-10-24T03:24:14.810Z,18.17
2023-10-24T03:29:11.353Z,18.25
2023-10-24T03:34:07.891Z,18.09
2023-10-24T03:39:05.869Z,18.26
2023-10-24T03:44:02.530Z,18.21
2023-10-24T03:48:59.115Z,18.10
2023-10-24T03:53:55.625Z,18.06
2023-10-24T03:58:52.897Z,18.07
2023-10-24T04:03:49.529Z,17.97
2023-10-24T04:08:46.133Z,18.00
2023-10-24T04:13:42.710Z,18.13
2023-10-24T04:18:40.293Z,18.04
2023-10-24T04:23:36.798Z,17.72
2023-10-24T04:28:33.399Z,17.91
2023-10-24T04:33:30.069Z,17.60
2023-10-24T04:38:27.219Z,17.64
2023-10-24T04:43:23.763Z,17.93
2023-10-24T04:48:20.338Z,18.36
2023-10-24T04:53:16.851Z,18.81
2023-10-24T04:58:14.450Z,18.99
2023-10-24T05:03:10.968Z,18.72
2023-10-24T05:08:10.626Z,18.72
2023-10-24T05:13:07.210Z,18.86
2023-10-24T05:18:04.721Z,18.36
2023-10-24T05:23:01.244Z,18.49
2023-10-24T05:27:57.793Z,18.42
2023-10-24T05:32:54.367Z,18.02
2023-10-24T05:37:51.595Z,17.99
2023-10-24T05:42:48.210Z,17.86
2023-10-24T05:47:44.740Z,17.93
2023-10-24T05:52:41.309Z,18.25
2023-10-24T05:57:45.682Z,18.51
2023-10-24T06:02:42.377Z,18.61
2023-10-24T06:07:38.980Z,18.51
2023-10-24T06:12:35.580Z,18.13
2023-10-24T06:17:33.576Z,17.94
2023-10-24T06:22:30.300Z,18.15
2023-10-24T06:27:26.906Z,18.32
2023-10-24T06:32:23.694Z,18.08
2023-10-24T06:37:22.112Z,18.33
2023-10-24T06:42:18.667Z,18.22
2023-10-24T06:47:15.533Z,18.13
2023-10-24T06:52:13.220Z,18.49
2023-10-24T06:57:13.259Z,18.65
2023-10-24T07:02:09.849Z,18.74
2023-10-24T07:07:06.636Z,18.93
2023-10-24T07:12:03.451Z,18.93
2023-10-24T07:17:00.774Z,18.88
2023-10-24T07:21:57.357Z,18.89
2023-10-24T07:26:54.256Z,19.13
2023-10-24T07:31:50.934Z,19.18
2023-10-24T07:36:48.357Z,19.50
2023-10-24T07:41:45.981Z,19.80
2023-10-24T07:46:42.781Z,19.88
2023-10-24T07:51:39.430Z,19.94
2023-10-24T07:56:37.548Z,20.21
2023-10-24T08:01:34.271Z,20.17
2023-10-24T08:06:32.125Z,20.49
2023-10-24T08:11:28.962Z,20.72
2023-10-24T08:16:29.305Z,21.08
2023-10-24T08:21:25.904Z,20.81
2023-10-24T08:26:22.554Z,21.11
2023-10-24T08:31:19.280Z,21.32
2023-10-24T08:36:16.544Z,21.40
2023-10-24T08:41:13.203Z,21.36
2023-10-24T08:46:10.057Z,21.39
2023-10-24T08:51:06.851Z,21.48
2023-10-24T08:56:06.860Z,21.62
2023-10-24T09:01:04.008Z,21.76
2023-10-24T09:06:00.824Z,21.91
2023-10-24T09:10:57.354Z,21.87
2023-10-24T09:16:08.819Z,22.09
2023-10-24T09:21:07.136Z,22.33
2023-10-24T09:26:04.326Z,22.53
2023-10-24T09:31:01.578Z,22.56
2023-10-24T09:36:12.030Z,22.85
2023-10-24T09:41:11.511Z,22.98
2023-10-24T09:46:08.425Z,23.16
2023-10-24T09:51:05.798Z,23.24
2023-10-24T09:56:03.936Z,23.29
2023-10-24T10:01:04.829Z,23.43
2023-10-24T10:06:05.369Z,23.38
2023-10-24T10:11:04.542Z,23.43
2023-10-24T10:16:16.401Z,23.58
2023-10-24T10:21:18.513Z,23.74
2023-10-24T10:26:17.216Z,23.74
2023-10-24T10:32:48.023Z,23.91
2023-10-24T10:36:53.620Z,23.94
2023-10-24T10:42:07.035Z,24.01
2023-10-24T10:47:04.424Z,24.23
2023-10-24T10:52:06.250Z,24.36
2023-10-24T10:57:04.680Z,24.42
2023-10-24T11:02:10.620Z,24.51
2023-10-24T11:07:07.422Z,24.58
2023-10-24T11:12:22.758Z,24.71
2023-10-24T11:17:20.742Z,24.66
2023-10-24T11:22:17.412Z,24.81
2023-10-24T11:27:13.994Z,24.71
2023-10-24T11:32:11.949Z,24.80
2023-10-24T11:37:11.857Z,24.93
2023-10-24T11:42:08.726Z,24.90
2023-10-24T11:47:06.221Z,25.10
2023-10-24T11:52:03.220Z,25.22
2023-10-24T11:57:00.881Z,25.22
2023-10-24T12:01:57.603Z,25.21
2023-10-24T12:07:01.158Z,25.25
2023-10-24T12:11:57.796Z,25.31
2023-10-24T12:16:59.723Z,25.26
2023-10-24T12:21:56.942Z,25.27
2023-10-24T12:26:54.386Z,25.24
2023-10-24T12:31:50.973Z,25.24
2023-10-24T12:36:52.577Z,25.21
2023-10-24T12:41:49.276Z,25.21
2023-10-24T12:46:45.921Z,25.24
2023-10-24T12:51:43.102Z,25.24
2023-10-24T12:56:40.330Z,25.21
2023-10-24T13:01:37.004Z,25.22
2023-10-24T13:06:35.211Z,25.21
2023-10-24T13:11:32.032Z,25.17
2023-10-24T13:16:29.354Z,25.18
2023-10-24T13:21:25.891Z,25.18
2023-10-24T13:26:22.417Z,25.21
2023-10-24T13:31:19.699Z,25.20
2023-10-24T13:36:21.043Z,25.21
2023-10-24T13:41:19.814Z,25.21
2023-10-24T13:46:18.906Z,25.27
2023-10-24T13:51:20.140Z,25.28
2023-10-24T13:56:16.890Z,25.26
2023-10-24T14:01:30.991Z,25.25
2023-10-24T14:06:28.978Z,25.27
2023-10-24T14:11:25.496Z,25.23
2023-10-24T14:16:22.186Z,25.21
2023-10-24T14:21:19.331Z,25.17
2023-10-24T14:26:16.686Z,25.16
2023-10-24T14:31:13.452Z,25.13
2023-10-24T14:36:14.250Z,25.11
2023-10-24T14:41:10.918Z,25.10
2023-10-24T14:46:11.470Z,25.08
2023-10-24T14:51:08.137Z,25.05
2023-10-24T14:56:05.033Z,25.03
2023-10-24T15:01:02.880Z,25.02
2023-10-24T15:06:00.056Z,25.01
2023-10-24T15:10:56.625Z,24.97
2023-10-24T15:15:53.545Z,24.86
2023-10-24T15:20:50.054Z,24.80
2023-10-24T15:25:47.337Z,24.81
2023-10-24T15:30:43.902Z,24.83
2023-10-24T15:35:41.521Z,24.80
2023-10-24T15:40:38.213Z,24.92
2023-10-24T15:45:35.544Z,24.90
2023-10-24T15:50:35.194Z,24.90
2023-10-24T15:55:31.715Z,24.86
2023-10-24T16:00:28.889Z,24.84
2023-10-24T16:05:26.139Z,24.76
2023-10-24T16:10:22.867Z,24.49
2023-10-24T16:15:19.511Z,24.36
2023-10-24T16:20:16.143Z,24.12
2023-10-24T16:25:13.378Z,24.09
2023-10-24T16:30:10.423Z,24.15
2023-10-24T16:35:07.636Z,24.22
2023-10-24T16:40:04.730Z,23.97
2023-10-24T16:45:02.033Z,23.98
2023-10-24T16:49:58.886Z,24.04
2023-10-24T16:54:55.484Z,24.01
2023-10-24T16:59:52.120Z,23.98
2023-10-24T17:04:50.918Z,24.02
2023-10-24T17:09:47.476Z,24.08
2023-10-24T17:14:50.381Z,24.02
2023-10-24T17:19:46.992Z,24.03
2023-10-24T17:24:44.550Z,23.95
2023-10-24T17:29:42.446Z,24.00
2023-10-24T17:34:39.240Z,24.07
2023-10-24T17:39:36.725Z,23.89
2023-10-24T17:44:34.041Z,23.61
2023-10-24T17:49:30.797Z,23.48
2023-10-24T17:54:27.627Z,23.44
2023-10-24T17:59:24.274Z,23.36
2023-10-24T18:04:22.603Z,23.43
2023-10-24T18:09:19.113Z,23.45
2023-10-24T18:14:15.680Z,23.42
2023-10-24T18:19:12.503Z,23.36
2023-10-24T18:24:10.090Z,23.23
2023-10-24T18:29:06.644Z,23.16
2023-10-24T18:34:03.213Z,23.25
2023-10-24T18:39:03.109Z,23.04
2023-10-24T18:44:00.435Z,23.14
2023-10-24T18:48:56.950Z,23.09
2023-10-24T18:53:53.502Z,23.00
2023-10-24T18:58:50.053Z,22.92
2023-10-24T19:03:47.408Z,23.01
2023-10-24T19:08:44.308Z,22.98
2023-10-24T19:13:41.070Z,23.13
2023-10-24T19:18:37.877Z,23.13
2023-10-24T19:23:35.467Z,23.00
2023-10-24T19:28:32.313Z,23.16
2023-10-24T19:33:29.243Z,23.15
2023-10-24T19:38:26.386Z,23.14
2023-10-24T19:43:24.115Z,23.27
2023-10-24T19:48:21.199Z,23.36
2023-10-24T19:53:18.199Z,23.34
2023-10-24T19:58:15.732Z,23.15
2023-10-24T20:03:13.459Z,23.08
2023-10-24T20:08:13.922Z,22.99
2023-10-24T20:13:11.703Z,22.77
2023-10-24T20:18:10.005Z,22.63
2023-10-24T20:23:07.982Z,22.51
2023-10-24T20:28:04.908Z,22.76
2023-10-24T20:33:01.546Z,22.88
2023-10-24T20:37:58.113Z,22.89
2023-10-24T20:42:55.443Z,22.84
2023-10-24T20:47:52.068Z,22.61
2023-10-24T20:52:48.728Z,22.67
2023-10-24T20:57:45.654Z,22.69
2023-10-24T21:02:43.714Z,22.71
2023-10-24T21:07:41.858Z,22.74
2023-10-24T21:12:38.569Z,22.99
2023-10-24T21:17:35.266Z,22.98
2023-10-24T21:22:32.460Z,22.82
2023-10-24T21:27:29.520Z,22.73
2023-10-24T21:32:26.138Z,22.73
2023-10-24T21:37:22.777Z,22.69
2023-10-24T21:42:19.999Z,22.73
2023-10-24T21:47:16.628Z,22.68
2023-10-24T21:52:13.193Z,22.71
2023-10-24T21:57:09.933Z,22.72
2023-10-24T22:02:07.199Z,22.54
2023-10-24T22:07:03.840Z,22.61
2023-10-24T22:12:00.516Z,22.55
2023-10-24T22:16:57.080Z,22.50
2023-10-24T22:21:54.406Z,22.45
2023-10-24T22:26:51.105Z,22.41
2023-10-24T22:31:47.634Z,22.49
2023-10-24T22:36:44.275Z,22.55
2023-10-24T22:41:41.507Z,22.48
2023-10-24T22:46:38.200Z,22.52
2023-10-24T22:51:34.972Z,22.34
2023-10-24T22:56:31.645Z,22.40
2023-10-24T23:01:28.955Z,22.12
2023-10-24T23:06:25.496Z,22.22
2023-10-24T23:11:22.068Z,22.18
2023-10-24T23:16:18.680Z,22.19
2023-10-24T23:21:16.130Z,22.18
2023-10-24T23:26:12.707Z,22.22
2023-10-24T23:31:09.322Z,22.12
2023-10-24T23:36:06.155Z,22.08
2023-10-24T23:41:03.418Z,22.07
2023-10-24T23:46:00.016Z,22.10
2023-10-24T23:50:56.530Z,21.90
2023-10-24T23:55:53.124Z,22.09
